createdAt,value
2023-04-28T00:01:05.543Z,15.18
2023-04-28T00:06:07.061Z,15.50
2023-04-28T00:11:11.640Z,15.72
2023-04-28T00:16:13.186Z,15.68
2023-04-28T00:21:14.648Z,15.65
2023-04-28T00:26:16.089Z,15.67
2023-04-28T00:31:18.722Z,15.65
2023-04-28T00:36:20.326Z,15.84
2023-04-28T00:41:21.862Z,15.83
2023-04-28T00:46:33.878Z,15.89
2023-04-28T00:51:35.376Z,16.01
2023-04-28T00:56:36.964Z,15.93
2023-04-28T01:01:38.673Z,16.01
2023-04-28T01:06:41.685Z,15.80
2023-04-28T01:11:43.151Z,15.70
2023-04-28T01:16:46.401Z,15.54
2023-04-28T01:21:48.629Z,15.52
2023-04-28T01:27:00.152Z,15.60
2023-04-28T01:32:02.835Z,15.62
2023-04-28T01:37:04.391Z,15.68
2023-04-28T01:42:05.994Z,15.58
2023-04-28T01:47:08.011Z,15.43
2023-04-28T01:52:10.394Z,15.45
2023-04-28T01:57:11.988Z,15.55
2023-04-28T02:02:13.871Z,15.84
2023-04-28T02:07:15.467Z,15.85
2023-04-28T02:12:16.993Z,15.56
2023-04-28T02:17:18.481Z,15.37
2023-04-28T02:22:20.202Z,15.72
2023-04-28T02:27:21.667Z,16.07
2023-04-28T02:32:23.133Z,16.03
2023-04-28T02:37:26.106Z,15.87
2023-04-28T02:42:27.649Z,15.74
2023-04-28T02:47:29.155Z,15.65
2023-04-28T02:52:30.612Z,15.59
2023-04-28T02:57:32.083Z,15.68
2023-04-28T03:02:33.720Z,15.69
2023-04-28T03:07:35.262Z,15.77
2023-04-28T03:12:36.687Z,15.85
2023-04-28T03:17:39.077Z,15.90
2023-04-28T03:22:40.823Z,15.93
2023-04-28T03:27:42.363Z,15.70
2023-04-28T03:32:43.913Z,15.68
2023-04-28T03:37:45.543Z,15.72
2023-04-28T03:42:47.048Z,15.63
2023-04-28T03:47:57.662Z,15.88
2023-04-28T03:52:59.119Z,15.81
2023-04-28T03:58:00.758Z,15.72
2023-04-28T04:03:02.371Z,15.84
2023-04-28T04:08:04.169Z,15.82
2023-04-28T04:13:05.745Z,15.87
2023-04-28T04:18:07.351Z,15.68
2023-04-28T04:23:37.806Z,15.75
2023-04-28T04:28:39.373Z,15.79
2023-04-28T04:33:42.826Z,15.81
2023-04-28T04:38:44.838Z,15.76
2023-04-28T04:43:53.108Z,15.45
2023-04-28T04:49:02.927Z,15.50
2023-04-28T04:54:04.842Z,15.52
2023-04-28T04:59:06.873Z,15.51
2023-04-28T05:04:23.098Z,15.58
2023-04-28T05:09:25.458Z,15.55
2023-04-28T05:14:27.273Z,15.54
2023-04-28T05:19:30.404Z,15.44
2023-04-28T05:24:32.270Z,15.45
2023-04-28T05:29:34.846Z,15.36
2023-04-28T05:34:36.994Z,15.24
2023-04-28T05:39:38.725Z,15.14
2023-04-28T05:44:43.156Z,15.09
2023-04-28T05:49:46.541Z,15.03
2023-04-28T05:54:48.967Z,14.96
2023-04-28T05:59:50.618Z,14.88
2023-04-28T06:04:53.013Z,14.96
2023-04-28T06:09:54.940Z,15.03
2023-04-28T06:14:56.378Z,15.18
2023-04-28T06:20:01.078Z,14.94
2023-04-28T06:25:02.535Z,14.77
2023-04-28T06:30:19.552Z,14.31
2023-04-28T06:35:21.045Z,14.18
2023-04-28T06:40:22.457Z,14.07
2023-04-28T06:45:30.253Z,14.10
2023-04-28T06:50:31.928Z,14.04
2023-04-28T06:55:35.069Z,14.37
2023-04-28T07:00:36.714Z,14.47
2023-04-28T07:05:38.221Z,14.16
2023-04-28T07:10:39.756Z,14.60
2023-04-28T07:15:41.703Z,14.71
2023-04-28T07:20:43.810Z,14.60
2023-04-28T07:25:45.270Z,14.31
2023-04-28T07:30:46.758Z,14.36
2023-04-28T07:35:48.401Z,14.40
2023-04-28T07:45:56.446Z,14.71
2023-04-28T07:50:57.916Z,14.79
2023-04-28T07:55:59.331Z,14.76
2023-04-28T08:01:00.810Z,14.57
2023-04-28T08:06:02.431Z,14.64
2023-04-28T08:11:04.036Z,14.81
2023-04-28T08:16:06.394Z,14.87
2023-04-28T08:21:07.920Z,15.18
2023-04-28T08:26:09.445Z,15.45
2023-04-28T08:31:10.914Z,15.50
2023-04-28T08:36:12.426Z,15.56
2023-04-28T08:41:15.422Z,15.57
2023-04-28T08:46:21.225Z,15.66
2023-04-28T08:51:32.952Z,15.60
2023-04-28T08:56:35.463Z,15.56
2023-04-28T09:01:36.915Z,15.71
2023-04-28T09:06:38.921Z,15.70
2023-04-28T09:11:54.203Z,15.72
2023-04-28T09:16:55.819Z,15.84
2023-04-28T09:21:57.522Z,16.01
2023-04-28T09:27:00.132Z,15.98
2023-04-28T09:32:21.714Z,15.99
2023-04-28T09:37:25.225Z,16.23
2023-04-28T09:42:33.655Z,16.22
2023-04-28T09:47:46.437Z,16.25
2023-04-28T09:52:57.728Z,16.33
2023-04-28T09:58:04.970Z,16.39
2023-04-28T10:03:09.103Z,16.51
2023-04-28T10:08:10.877Z,16.46
2023-04-28T10:13:12.658Z,16.54
2023-04-28T10:18:15.576Z,16.58
2023-04-28T10:23:25.383Z,16.74
2023-04-28T10:28:27.279Z,16.83
2023-04-28T10:33:29.148Z,16.77
2023-04-28T10:38:30.903Z,16.75
2023-04-28T10:43:39.223Z,16.64
2023-04-28T10:48:46.641Z,16.70
2023-04-28T10:53:48.117Z,16.70
2023-04-28T10:58:52.686Z,16.82
2023-04-28T11:04:14.468Z,16.84
2023-04-28T11:09:16.037Z,16.88
2023-04-28T11:14:17.436Z,16.70
2023-04-28T11:19:24.040Z,16.90
2023-04-28T11:24:27.153Z,17.16
2023-04-28T11:29:32.668Z,17.39
2023-04-28T11:34:34.885Z,17.27
2023-04-28T11:39:36.322Z,17.66
2023-04-28T11:44:37.805Z,17.70
2023-04-28T11:49:42.866Z,18.09
2023-04-28T11:54:44.374Z,18.35
2023-04-28T11:59:46.090Z,18.61
2023-04-28T12:04:47.924Z,18.42
2023-04-28T12:10:16.033Z,18.24
2023-04-28T12:15:18.816Z,18.14
2023-04-28T12:20:36.275Z,17.94
2023-04-28T12:25:45.082Z,18.08
2023-04-28T12:30:46.552Z,18.43
2023-04-28T12:35:48.106Z,18.54
2023-04-28T12:40:49.522Z,18.73
2023-04-28T12:45:51.978Z,19.00
2023-04-28T12:50:53.522Z,19.02
2023-04-28T12:55:54.955Z,19.03
2023-04-28T13:00:56.441Z,18.69
2023-04-28T13:05:57.973Z,18.73
2023-04-28T13:11:00.294Z,18.92
2023-04-28T13:16:03.018Z,18.75
2023-04-28T13:21:04.524Z,18.70
2023-04-28T13:26:05.932Z,18.68
2023-04-28T13:31:07.465Z,18.28
2023-04-28T13:36:09.243Z,18.76
2023-04-28T13:41:10.807Z,19.06
2023-04-28T13:46:12.495Z,19.35
2023-04-28T13:51:13.983Z,19.52
2023-04-28T13:56:15.469Z,18.75
2023-04-28T14:01:16.983Z,19.29
2023-04-28T14:06:18.525Z,19.02
2023-04-28T14:11:20.001Z,18.95
2023-04-28T14:16:21.580Z,18.96
2023-04-28T14:21:23.085Z,18.93
2023-04-28T14:26:24.589Z,18.82
2023-04-28T14:31:26.076Z,18.72
2023-04-28T14:36:27.566Z,18.95
2023-04-28T14:41:29.031Z,19.03
2023-04-28T14:46:30.556Z,18.90
2023-04-28T14:51:32.033Z,18.97
2023-04-28T14:56:33.970Z,18.95
2023-04-28T15:01:35.733Z,18.78
2023-04-28T15:06:37.308Z,18.92
2023-04-28T15:11:38.863Z,18.81
2023-04-28T15:16:40.478Z,18.84
2023-04-28T15:21:42.070Z,18.86
2023-04-28T15:26:43.572Z,18.70
2023-04-28T15:31:45.100Z,18.84
2023-04-28T15:36:46.619Z,19.00
2023-04-28T15:41:48.060Z,18.81
2023-04-28T15:46:49.591Z,18.75
2023-04-28T15:51:51.025Z,18.56
2023-04-28T15:56:52.496Z,18.48
2023-04-28T16:01:53.995Z,18.40
2023-04-28T16:06:55.565Z,18.52
2023-04-28T16:11:57.722Z,18.56
2023-04-28T16:16:59.341Z,18.48
2023-04-28T16:22:00.940Z,18.17
2023-04-28T16:27:02.513Z,18.15
2023-04-28T16:32:05.112Z,18.03
2023-04-28T16:37:06.679Z,18.05
2023-04-28T16:42:08.560Z,18.08
2023-04-28T16:47:10.056Z,17.98
2023-04-28T16:52:11.488Z,17.92
2023-04-28T16:57:12.979Z,17.89
2023-04-28T17:02:14.517Z,18.01
2023-04-28T17:07:16.033Z,17.90
2023-04-28T17:12:17.778Z,17.96
2023-04-28T17:17:19.348Z,17.88
2023-04-28T17:22:20.867Z,17.90
2023-04-28T17:27:22.337Z,17.98
2023-04-28T17:32:23.858Z,17.96
2023-04-28T17:37:25.352Z,18.00
2023-04-28T17:42:30.542Z,18.07
2023-04-28T17:47:32.040Z,17.91
2023-04-28T17:52:33.518Z,18.03
2023-04-28T17:57:34.986Z,17.34
2023-04-28T18:02:36.556Z,17.37
2023-04-28T18:07:39.309Z,17.36
2023-04-28T18:12:41.992Z,17.35
2023-04-28T18:17:43.532Z,16.99
2023-04-28T18:22:45.147Z,17.07
2023-04-28T18:27:46.560Z,16.98
2023-04-28T18:32:48.084Z,17.06
2023-04-28T18:37:49.528Z,17.00
2023-04-28T18:42:51.046Z,17.07
2023-04-28T18:47:52.673Z,17.05
2023-04-28T18:52:54.767Z,16.83
2023-04-28T18:57:56.241Z,16.93
2023-04-28T19:02:57.879Z,16.71
2023-04-28T19:07:59.411Z,16.68
2023-04-28T19:13:00.860Z,16.82
2023-04-28T19:18:02.589Z,16.86
2023-04-28T19:23:04.181Z,16.92
2023-04-28T19:28:05.659Z,16.72
2023-04-28T19:33:07.179Z,16.65
2023-04-28T19:38:08.681Z,16.69
2023-04-28T19:43:10.905Z,16.70
2023-04-28T19:48:12.634Z,16.48
2023-04-28T19:53:14.281Z,16.39
2023-04-28T19:58:15.893Z,16.41
2023-04-28T20:03:17.594Z,16.46
2023-04-28T20:08:19.112Z,16.44
2023-04-28T20:13:20.523Z,16.52
2023-04-28T20:18:21.977Z,16.46
2023-04-28T20:23:23.498Z,16.46
2023-04-28T20:28:24.972Z,16.40
2023-04-28T20:33:26.429Z,16.46
2023-04-28T20:38:29.337Z,16.43
2023-04-28T20:43:30.808Z,16.46
2023-04-28T20:48:32.241Z,16.50
2023-04-28T20:53:33.671Z,16.32
2023-04-28T20:58:35.178Z,16.28
2023-04-28T21:03:36.835Z,16.31
2023-04-28T21:08:38.565Z,16.47
2023-04-28T21:13:40.460Z,16.36
2023-04-28T21:18:43.499Z,16.34
2023-04-28T21:23:44.946Z,16.52
2023-04-28T21:28:46.884Z,16.62
2023-04-28T21:33:48.302Z,16.52
2023-04-28T21:38:49.819Z,16.54
2023-04-28T21:43:52.014Z,16.56
2023-04-28T21:48:53.523Z,16.57
2023-04-28T21:53:55.037Z,16.54
2023-04-28T21:58:56.476Z,16.43
2023-04-28T22:03:58.670Z,16.43
2023-04-28T22:09:00.825Z,16.43
2023-04-28T22:14:02.292Z,16.45
2023-04-28T22:19:03.800Z,16.42
2023-04-28T22:24:05.521Z,16.45
2023-04-28T22:29:07.071Z,16.42
2023-04-28T22:34:08.542Z,16.35
2023-04-28T22:39:10.000Z,16.40
2023-04-28T22:44:11.442Z,16.35
2023-04-28T22:49:13.043Z,16.42
2023-04-28T22:54:14.476Z,16.52
2023-04-28T22:59:15.905Z,16.51
2023-04-28T23:04:17.614Z,16.29
2023-04-28T23:09:19.486Z,16.28
2023-04-28T23:14:20.978Z,16.11
2023-04-28T23:19:22.625Z,15.98
2023-04-28T23:24:24.223Z,16.00
2023-04-28T23:29:26.095Z,15.95
2023-04-28T23:34:27.582Z,15.67
2023-04-28T23:39:29.086Z,15.88
2023-04-28T23:44:30.538Z,15.74
2023-04-28T23:49:31.951Z,15.69
2023-04-28T23:54:33.413Z,15.77
2023-04-28T23:59:34.864Z,15.82
